Time;durP1;ratioP1;P1;durP2;ratioP2;P2;SDS_P1;SDS_P2;PMS_P1;PMS_P2;Temp;Humidity;BMP_temperature;BMP_pressure;BME280_temperature;BME280_humidity;BME280_pressure;Samples;Min_cycle;Max_cycle;Signal;HPM_P1;HPM_P2
2021/06/10 00:01:39;;;;;;;6.70;5.60;;;;;;;17.72;87.66;100840.25;1763506;81;20980;-78
2021/06/10 00:04:06;;;;;;;9.03;5.62;;;;;;;17.69;87.88;100834.45;1763706;81;20971;-78
2021/06/10 00:06:34;;;;;;;12.93;6.00;;;;;;;17.64;88.08;100836.20;1763527;81;21446;-73
2021/06/10 00:09:04;;;;;;;14.78;6.03;;;;;;;17.59;88.27;100840.20;1763526;81;20962;-73
2021/06/10 00:11:31;;;;;;;9.28;5.75;;;;;;;17.55;88.60;100837.52;1763752;79;21577;-74
2021/06/10 00:13:59;;;;;;;8.43;5.72;;;;;;;17.48;88.91;100845.92;1763650;81;20899;-75
2021/06/10 00:16:26;;;;;;;9.75;5.78;;;;;;;17.42;89.43;100846.48;1763529;81;21016;-74
2021/06/10 00:18:56;;;;;;;9.83;5.87;;;;;;;17.37;89.98;100846.57;1763764;81;21095;-71
2021/06/10 00:21:22;;;;;;;6.42;5.83;;;;;;;17.32;90.48;100847.48;1763443;81;21125;-72
2021/06/10 00:23:49;;;;;;;10.43;6.45;;;;;;;17.28;90.89;100839.55;1763627;81;21009;-74
2021/06/10 00:26:16;;;;;;;11.38;6.17;;;;;;;17.22;91.36;100844.88;1763592;81;20986;-75
2021/06/10 00:28:43;;;;;;;9.98;5.62;;;;;;;17.20;91.68;100834.98;1763477;81;21565;-71
2021/06/10 00:31:10;;;;;;;9.70;6.35;;;;;;;17.20;91.96;100839.42;1763541;81;21786;-71
2021/06/10 00:33:37;;;;;;;11.18;6.08;;;;;;;17.17;92.28;100832.64;1763541;81;21013;-76
2021/06/10 00:36:05;;;;;;;10.95;6.10;;;;;;;17.17;92.37;100830.02;1763613;81;21013;-78
2021/06/10 00:38:32;;;;;;;9.48;5.50;;;;;;;17.16;92.57;100834.11;1763754;81;20915;-76
2021/06/10 00:40:58;;;;;;;11.15;6.78;;;;;;;17.17;92.82;100837.89;1763741;81;20970;-80
2021/06/10 00:43:25;;;;;;;12.93;6.47;;;;;;;17.18;92.87;100838.72;1763863;81;21111;-77
2021/06/10 00:45:53;;;;;;;10.85;5.72;;;;;;;17.20;92.93;100836.30;1763609;81;20980;-70
2021/06/10 00:48:20;;;;;;;9.45;5.83;;;;;;;17.20;92.91;100836.30;1763563;81;20978;-75
2021/06/10 00:50:50;;;;;;;8.28;5.75;;;;;;;17.19;92.91;100838.59;1763932;81;21018;-73
2021/06/10 00:53:25;;;;;;;12.60;6.03;;;;;;;17.17;93.02;100833.13;1763751;81;21521;-76
2021/06/10 00:55:56;;;;;;;9.73;6.05;;;;;;;17.14;93.37;100842.58;1764370;81;21438;-74
2021/06/10 00:58:24;;;;;;;10.53;6.45;;;;;;;17.11;93.65;100842.86;1763743;81;21655;-75
2021/06/10 01:00:51;;;;;;;12.95;6.50;;;;;;;17.10;94.04;100841.22;1763892;81;20934;-79
2021/06/10 01:03:18;;;;;;;8.28;5.80;;;;;;;17.12;94.08;100841.90;1763654;81;20975;-75
2021/06/10 01:05:52;;;;;;;12.45;5.90;;;;;;;17.11;94.20;100831.89;1763870;81;20875;-74
2021/06/10 01:09:01;;;;;;;15.18;7.30;;;;;;;17.12;94.31;100834.87;1763455;81;21107;-74
2021/06/10 01:11:49;;;;;;;10.65;6.78;;;;;;;17.11;94.54;100829.27;1763607;81;21042;-76
2021/06/10 01:14:30;;;;;;;8.40;6.30;;;;;;;17.08;94.71;100831.34;1763470;81;21021;-78
2021/06/10 01:16:58;;;;;;;13.32;6.97;;;;;;;17.03;94.94;100829.14;1763919;81;20938;-74
2021/06/10 01:19:48;;;;;;;10.43;6.47;;;;;;;17.01;95.16;100836.30;1763540;81;20994;-75
2021/06/10 01:22:27;;;;;;;13.18;6.35;;;;;;;17.03;95.34;100829.63;1763444;81;21169;-74
2021/06/10 01:25:14;;;;;;;15.53;6.42;;;;;;;17.02;95.32;100820.92;1763623;81;21013;-76
2021/06/10 01:27:50;;;;;;;9.83;5.65;;;;;;;17.03;95.33;100823.91;1762968;81;21021;-72
2021/06/10 01:30:29;;;;;;;11.55;5.85;;;;;;;17.03;95.28;100826.52;1763528;81;21596;-75
2021/06/10 01:33:02;;;;;;;8.55;6.47;;;;;;;17.03;95.21;100823.91;1763607;81;21564;-74
2021/06/10 01:35:33;;;;;;;13.58;6.85;;;;;;;17.02;95.31;100827.95;1763583;81;21148;-74
2021/06/10 01:38:00;;;;;;;12.28;6.20;;;;;;;17.00;95.43;100826.80;1763469;81;20951;-75
2021/06/10 01:40:29;;;;;;;9.48;6.33;;;;;;;16.98;95.45;100823.47;1763489;81;21518;-72
2021/06/10 01:42:57;;;;;;;12.15;6.33;;;;;;;16.99;95.41;100826.45;1763636;81;21021;-72
2021/06/10 01:45:23;;;;;;;11.25;6.15;;;;;;;16.99;95.24;100829.07;1763394;81;20955;-77
2021/06/10 01:47:51;;;;;;;9.18;6.60;;;;;;;16.98;95.12;100832.64;1763572;81;21105;-74
2021/06/10 01:50:19;;;;;;;6.90;5.97;;;;;;;16.95;95.10;100835.55;1763590;81;20926;-74
2021/06/10 01:52:46;;;;;;;8.05;5.85;;;;;;;16.92;95.13;100839.75;1763501;81;21042;-75
2021/06/10 01:55:16;;;;;;;12.33;7.17;;;;;;;16.90;95.09;100837.28;1765786;81;20950;-73
2021/06/10 01:57:44;;;;;;;8.95;6.20;;;;;;;16.89;94.97;100829.06;1767274;81;21445;-74
2021/06/10 02:00:12;;;;;;;9.38;6.45;;;;;;;16.88;94.93;100832.64;1767135;81;21109;-72
2021/06/10 02:02:39;;;;;;;8.63;6.40;;;;;;;16.90;94.93;100833.36;1767027;81;20982;-73
2021/06/10 02:05:08;;;;;;;12.07;6.70;;;;;;;16.91;94.86;100838.13;1767091;81;20884;-74
2021/06/10 02:07:42;;;;;;;10.43;6.60;;;;;;;16.90;94.73;100838.59;1767093;81;21002;-73
2021/06/10 02:10:13;;;;;;;7.33;6.12;;;;;;;16.87;94.72;100841.97;1766999;81;21510;-71
2021/06/10 02:12:42;;;;;;;11.08;7.10;;;;;;;16.81;94.80;100838.11;1767042;81;21489;-72
2021/06/10 02:15:11;;;;;;;11.28;6.75;;;;;;;16.79;95.04;100843.13;1766953;81;20938;-77
2021/06/10 02:17:39;;;;;;;14.03;6.80;;;;;;;16.75;95.18;100841.25;1739700;81;20907;-73
2021/06/10 02:20:07;;;;;;;7.65;6.08;;;;;;;16.74;95.22;100850.10;1767057;81;20998;-68
2021/06/10 02:22:36;;;;;;;10.70;6.87;;;;;;;16.70;95.38;100847.39;1767299;81;20947;-72
2021/06/10 02:25:04;;;;;;;14.83;6.85;;;;;;;16.68;95.57;100849.81;1767207;81;21085;-72
2021/06/10 02:27:31;;;;;;;10.15;6.08;;;;;;;16.66;95.60;100846.00;1766941;81;20946;-72
2021/06/10 02:29:58;;;;;;;18.20;7.12;;;;;;;16.67;95.56;100849.45;1767075;81;21505;-74
2021/06/10 02:32:24;;;;;;;9.38;6.40;;;;;;;16.64;95.54;100849.25;1767404;81;20998;-75
2021/06/10 02:34:51;;;;;;;11.00;6.55;;;;;;;16.61;95.52;100854.77;1767332;81;20955;-76
2021/06/10 02:37:19;;;;;;;8.88;6.47;;;;;;;16.61;95.57;100852.62;1767394;81;21135;-74
2021/06/10 02:39:48;;;;;;;14.60;7.30;;;;;;;16.60;95.55;100851.78;1767372;81;20951;-73
2021/06/10 02:42:15;;;;;;;13.78;6.78;;;;;;;16.61;95.34;100850.84;1766975;81;20978;-71
2021/06/10 02:44:46;;;;;;;11.50;6.20;;;;;;;16.63;95.15;100852.83;1767168;81;21532;-76
2021/06/10 02:47:13;;;;;;;16.20;6.75;;;;;;;16.65;94.90;100846.16;1767035;81;21094;-76
2021/06/10 02:49:44;;;;;;;9.38;5.87;;;;;;;16.66;94.57;100846.00;1767129;81;21104;-75
2021/06/10 02:52:14;;;;;;;8.45;6.05;;;;;;;16.67;94.21;100854.22;1767191;81;21029;-74
2021/06/10 02:54:41;;;;;;;5.95;5.40;;;;;;;16.68;93.99;100848.50;1767067;81;20981;-74
2021/06/10 02:57:10;;;;;;;12.50;6.28;;;;;;;16.70;93.73;100854.42;1767006;81;21000;-70
2021/06/10 02:59:38;;;;;;;9.20;5.78;;;;;;;16.71;93.53;100850.85;1767097;81;21030;-77
2021/06/10 03:02:05;;;;;;;10.18;6.33;;;;;;;16.72;93.35;100857.76;1767013;81;21097;-76
2021/06/10 03:04:31;;;;;;;14.53;6.60;;;;;;;16.74;93.28;100851.89;1766946;81;20871;-74
2021/06/10 03:06:59;;;;;;;14.13;6.25;;;;;;;16.75;93.17;100854.36;1767222;81;20943;-74
2021/06/10 03:09:28;;;;;;;11.18;6.22;;;;;;;16.76;93.06;100860.43;1767049;81;20903;-72
2021/06/10 03:11:55;;;;;;;7.90;5.95;;;;;;;16.75;92.80;100856.98;1767144;81;21069;-72
2021/06/10 03:14:23;;;;;;;8.50;5.97;;;;;;;16.72;92.67;100859.06;1767453;81;21145;-71
2021/06/10 03:16:50;;;;;;;7.87;5.80;;;;;;;16.70;92.90;100860.50;1767115;81;20982;-69
2021/06/10 03:19:17;;;;;;;8.58;6.10;;;;;;;16.67;93.07;100866.48;1766919;81;21088;-73
2021/06/10 03:21:45;;;;;;;9.45;6.33;;;;;;;16.66;93.26;100861.72;1767125;81;20947;-75
2021/06/10 03:24:13;;;;;;;11.25;6.78;;;;;;;16.69;93.38;100865.38;1767015;81;21501;-74
2021/06/10 03:26:41;;;;;;;11.20;6.25;;;;;;;16.74;93.38;100867.14;1738981;81;20974;-74
2021/06/10 03:29:08;;;;;;;11.95;6.20;;;;;;;16.78;93.30;100867.70;1767035;81;20966;-77
2021/06/10 03:31:36;;;;;;;9.75;6.00;;;;;;;16.82;93.03;100871.20;1767258;81;20899;-75
2021/06/10 03:34:03;;;;;;;7.87;5.87;;;;;;;16.85;92.84;100874.86;1767221;81;22531;-74
2021/06/10 03:36:30;;;;;;;12.28;6.33;;;;;;;16.88;92.85;100875.89;1767052;81;20994;-73
2021/06/10 03:38:58;;;;;;;12.55;6.17;;;;;;;16.93;92.63;100873.71;1767348;81;21104;-73
2021/06/10 03:41:27;;;;;;;15.53;6.53;;;;;;;16.97;92.41;100871.65;1767264;81;20887;-78
2021/06/10 03:43:54;;;;;;;13.40;6.33;;;;;;;17.04;92.57;100881.91;1767340;81;20867;-73
2021/06/10 03:46:21;;;;;;;6.62;5.37;;;;;;;17.13;92.38;100885.52;1767279;81;21078;-78
2021/06/10 03:48:48;;;;;;;6.90;6.03;;;;;;;17.22;92.04;100888.63;1767218;81;21651;-73
2021/06/10 03:51:17;;;;;;;8.30;5.60;;;;;;;17.29;91.90;100889.73;1767090;81;21965;-74
2021/06/10 03:53:47;;;;;;;6.65;5.90;;;;;;;17.36;91.39;100890.81;1767000;81;20848;-72
2021/06/10 03:56:14;;;;;;;6.83;5.78;;;;;;;17.42;90.98;100878.48;1767030;81;21031;-76
2021/06/10 03:58:41;;;;;;;11.90;5.85;;;;;;;17.47;90.87;100880.19;1767254;81;20989;-75
2021/06/10 04:01:08;;;;;;;7.67;6.20;;;;;;;17.52;90.66;100879.27;1767252;81;21001;-78
2021/06/10 04:03:35;;;;;;;9.25;6.10;;;;;;;17.58;90.47;100875.31;1767294;81;22064;-74
2021/06/10 04:06:02;;;;;;;7.47;5.50;;;;;;;17.64;90.36;100876.05;1766896;81;20887;-72
2021/06/10 04:08:29;;;;;;;10.70;6.10;;;;;;;17.70;89.92;100871.07;1767388;81;20989;-72
2021/06/10 04:10:56;;;;;;;7.00;5.15;;;;;;;17.75;89.73;100878.50;1767607;81;20942;-75
2021/06/10 04:13:23;;;;;;;8.43;6.30;;;;;;;17.81;89.72;100878.77;1767703;81;20986;-74
2021/06/10 04:15:50;;;;;;;7.42;5.80;;;;;;;17.88;89.58;100885.11;1767899;81;21163;-75
2021/06/10 04:18:18;;;;;;;6.58;5.00;;;;;;;17.94;89.17;100871.88;1767306;81;20974;-75
2021/06/10 04:20:47;;;;;;;12.82;5.08;;;;;;;18.02;88.18;100884.31;1767286;81;20924;-75
2021/06/10 04:23:14;;;;;;;10.35;5.33;;;;;;;18.09;88.10;100886.70;1767351;81;20935;-75
2021/06/10 04:25:42;;;;;;;7.00;5.83;;;;;;;18.16;87.98;100880.72;1767256;81;21466;-75
2021/06/10 04:28:09;;;;;;;5.90;5.30;;;;;;;18.23;87.27;100878.34;1766956;81;21485;-73
2021/06/10 04:30:37;;;;;;;8.00;5.62;;;;;;;18.30;86.81;100889.93;1767215;81;21006;-78
2021/06/10 04:33:04;;;;;;;11.43;4.97;;;;;;;18.34;86.74;100880.31;1767092;81;20990;-71
2021/06/10 04:35:30;;;;;;;10.98;5.65;;;;;;;18.37;86.48;100870.83;1767423;81;21452;-72
2021/06/10 04:37:57;;;;;;;7.05;4.87;;;;;;;18.45;86.33;100879.27;1767465;81;20974;-72
2021/06/10 04:40:23;;;;;;;7.00;5.37;;;;;;;18.52;85.93;100882.17;1767038;81;21093;-70
2021/06/10 04:42:50;;;;;;;7.60;5.45;;;;;;;18.58;85.65;100877.16;1767406;81;21505;-76
2021/06/10 04:45:16;;;;;;;12.70;5.20;;;;;;;18.64;84.81;100886.25;1767021;81;21018;-72
2021/06/10 04:47:43;;;;;;;10.90;5.78;;;;;;;18.68;84.51;100886.30;1767252;81;21486;-74
2021/06/10 04:50:11;;;;;;;8.15;4.92;;;;;;;18.70;84.22;100892.25;1767006;81;21591;-70
2021/06/10 04:52:38;;;;;;;15.60;5.10;;;;;;;18.76;83.96;100883.77;1767324;81;20985;-77
2021/06/10 04:55:06;;;;;;;6.42;5.00;;;;;;;18.83;83.06;100884.33;1766997;81;21140;-72
2021/06/10 04:57:33;;;;;;;6.70;5.58;;;;;;;18.89;82.67;100889.50;1767378;81;21546;-74
2021/06/10 05:00:02;;;;;;;8.03;5.45;;;;;;;18.95;82.52;100886.27;1767216;81;20931;-75
2021/06/10 05:02:28;;;;;;;9.48;5.40;;;;;;;19.01;82.23;100887.82;1767139;81;21485;-73
2021/06/10 05:04:55;;;;;;;7.30;5.12;;;;;;;19.08;81.63;100893.80;1767082;81;21189;-75
2021/06/10 05:07:22;;;;;;;9.98;5.15;;;;;;;19.12;81.37;100895.13;1766968;81;21417;-73
2021/06/10 05:09:49;;;;;;;6.15;5.20;;;;;;;19.18;81.16;100897.98;1767075;81;21046;-72
2021/06/10 05:12:15;;;;;;;14.05;5.40;;;;;;;19.26;81.11;100899.38;1766990;81;20931;-74
2021/06/10 05:14:42;;;;;;;10.80;4.78;;;;;;;19.31;80.82;100897.11;1767360;81;21536;-76
2021/06/10 05:17:09;;;;;;;5.20;4.70;;;;;;;19.39;80.69;100905.58;1767122;81;21071;-75
2021/06/10 05:19:36;;;;;;;6.65;4.47;;;;;;;19.44;80.13;100905.48;1767095;81;20957;-71
2021/06/10 05:22:03;;;;;;;7.00;5.03;;;;;;;19.52;79.64;100905.56;1767063;81;20907;-73
2021/06/10 05:24:31;;;;;;;10.72;4.75;;;;;;;19.58;78.56;100907.23;1766971;81;20996;-72
2021/06/10 05:26:59;;;;;;;6.33;4.65;;;;;;;19.65;78.58;100912.23;1767061;81;21536;-78
2021/06/10 05:29:26;;;;;;;5.28;4.58;;;;;;;19.73;78.90;100912.28;1766769;81;21122;-74
2021/06/10 05:31:54;;;;;;;8.15;4.97;;;;;;;19.82;77.84;100920.56;1767002;81;20911;-77
2021/06/10 05:34:24;;;;;;;8.80;4.05;;;;;;;19.91;77.49;100911.77;1767037;81;21631;-75
2021/06/10 05:36:51;;;;;;;7.65;4.15;;;;;;;19.99;76.47;100916.58;1767152;81;20942;-77
2021/06/10 05:39:17;;;;;;;8.38;4.20;;;;;;;20.07;76.02;100912.66;1767094;81;21596;-73
2021/06/10 05:41:45;;;;;;;7.72;4.05;;;;;;;20.16;75.87;100912.72;1767264;81;21109;-72
2021/06/10 05:44:11;;;;;;;7.35;4.12;;;;;;;20.26;74.14;100917.39;1767085;81;21565;-74
2021/06/10 05:46:39;;;;;;;6.00;3.90;;;;;;;20.34;71.81;100913.49;1767805;81;21055;-71
2021/06/10 05:49:06;;;;;;;9.20;4.58;;;;;;;20.40;72.26;100917.64;1767595;81;20907;-72
2021/06/10 05:51:32;;;;;;;12.23;4.95;;;;;;;20.44;71.92;100918.16;1767423;81;21505;-74
2021/06/10 05:53:59;;;;;;;5.78;4.47;;;;;;;20.52;72.15;100913.73;1767608;81;21492;-76
2021/06/10 05:56:26;;;;;;;11.45;4.35;;;;;;;20.60;71.30;100910.31;1764433;81;20984;-72
2021/06/10 05:58:53;;;;;;;7.72;3.83;;;;;;;20.68;70.69;100916.92;1763418;81;20931;-73
2021/06/10 06:01:19;;;;;;;4.67;4.00;;;;;;;20.79;69.95;100914.00;1763415;81;21528;-71
2021/06/10 06:03:46;;;;;;;7.95;3.72;;;;;;;20.87;67.86;100916.64;1754398;81;21072;-77
2021/06/10 06:06:17;;;;;;;5.10;3.75;;;;;;;20.92;68.49;100921.45;1735641;81;21140;-73
2021/06/10 06:08:45;;;;;;;8.50;3.87;;;;;;;20.97;67.60;100919.13;1733230;82;20887;-75
2021/06/10 06:11:15;;;;;;;11.25;4.35;;;;;;;21.00;68.62;100920.96;1733146;82;20990;-75
2021/06/10 06:13:49;;;;;;;11.25;3.87;;;;;;;21.08;68.18;100925.44;1733262;82;21021;-75
2021/06/10 06:16:20;;;;;;;7.00;3.40;;;;;;;21.15;67.74;100927.80;1733317;82;20999;-74
2021/06/10 06:18:47;;;;;;;8.28;3.27;;;;;;;21.23;66.57;100929.11;1733317;82;21110;-72
2021/06/10 06:21:14;;;;;;;14.58;4.83;;;;;;;21.27;63.80;100927.80;1732923;82;21102;-80
2021/06/10 06:23:41;;;;;;;7.00;3.90;;;;;;;21.31;64.45;100927.81;1733253;82;20994;-75
2021/06/10 06:26:09;;;;;;;6.35;3.65;;;;;;;21.40;64.64;100927.31;1733174;82;20990;-79
2021/06/10 06:28:40;;;;;;;4.53;3.42;;;;;;;21.44;64.71;100920.20;1733097;82;20931;-75
2021/06/10 06:31:09;;;;;;;5.25;3.22;;;;;;;21.49;62.88;100919.23;1733296;82;21913;-72
2021/06/10 06:33:37;;;;;;;6.28;3.12;;;;;;;21.55;61.04;100921.21;1733327;82;20939;-72
2021/06/10 06:36:07;;;;;;;4.55;3.30;;;;;;;21.60;60.46;100927.33;1733336;81;20950;-75
2021/06/10 06:38:35;;;;;;;4.30;2.87;;;;;;;21.60;60.28;100928.65;1733166;82;20982;-79
2021/06/10 06:41:02;;;;;;;4.78;3.10;;;;;;;21.58;60.29;100929.29;1738440;81;21077;-74
2021/06/10 06:43:31;;;;;;;4.33;3.22;;;;;;;21.57;59.32;100931.09;1747932;81;21068;-73
2021/06/10 06:46:00;;;;;;;6.62;3.37;;;;;;;21.56;61.01;100930.80;1749243;81;21465;-77
2021/06/10 06:48:28;;;;;;;6.42;3.65;;;;;;;21.60;61.31;100932.61;1759769;81;20970;-75
2021/06/10 06:50:56;;;;;;;7.95;2.80;;;;;;;21.67;60.34;100930.93;1763708;81;21521;-77
2021/06/10 06:53:24;;;;;;;4.03;2.60;;;;;;;21.74;59.39;100935.88;1764049;81;20938;-72
2021/06/10 06:55:55;;;;;;;5.10;2.90;;;;;;;21.82;59.30;100937.70;1764323;81;21209;-81
2021/06/10 06:58:25;;;;;;;6.25;3.35;;;;;;;21.94;57.52;100936.39;1767423;81;21489;-77
2021/06/10 07:00:52;;;;;;;5.33;3.35;;;;;;;22.02;54.65;100937.19;1767475;81;21017;-79
2021/06/10 07:03:21;;;;;;;4.72;2.35;;;;;;;22.08;53.26;100938.36;1766848;81;21020;-75
2021/06/10 07:05:53;;;;;;;8.03;2.60;;;;;;;22.11;53.40;100937.50;1767395;81;21504;-72
2021/06/10 07:08:22;;;;;;;4.55;2.30;;;;;;;22.14;54.49;100938.48;1767082;81;21120;-75
2021/06/10 07:10:55;;;;;;;4.05;2.17;;;;;;;22.19;54.58;100934.02;1767080;81;21021;-76
2021/06/10 07:13:25;;;;;;;2.15;1.80;;;;;;;22.23;52.81;100939.30;1767275;81;21042;-78
2021/06/10 07:15:54;;;;;;;2.08;1.82;;;;;;;22.23;51.37;100938.47;1766358;81;20950;-79
2021/06/10 07:18:22;;;;;;;3.33;1.90;;;;;;;22.25;50.66;100928.05;1765944;81;21030;-74
2021/06/10 07:20:50;;;;;;;4.67;2.00;;;;;;;22.31;50.53;100947.69;1766464;81;21094;-76
2021/06/10 07:23:19;;;;;;;7.42;2.25;;;;;;;22.34;48.82;100942.89;1766842;81;20995;-74
2021/06/10 07:25:47;;;;;;;2.30;1.80;;;;;;;22.36;48.84;100954.14;1767553;81;21042;-76
2021/06/10 07:28:14;;;;;;;3.58;2.10;;;;;;;22.35;49.19;100951.16;1749483;81;21580;-75
2021/06/10 07:30:44;;;;;;;5.78;2.05;;;;;;;22.36;49.56;100950.67;1763047;81;20994;-77
2021/06/10 07:33:14;;;;;;;4.22;1.90;;;;;;;22.37;50.45;100951.00;1742120;81;21076;-76
2021/06/10 07:35:41;;;;;;;2.87;1.77;;;;;;;22.38;48.90;100952.14;1741699;81;21568;-76
2021/06/10 07:38:10;;;;;;;3.50;2.00;;;;;;;22.40;48.30;100951.98;1736677;81;21066;-73
2021/06/10 07:40:55;;;;;;;4.67;2.15;;;;;;;22.42;49.47;100954.78;1736701;81;20919;-78
2021/06/10 07:43:28;;;;;;;8.95;2.12;;;;;;;22.47;48.94;100952.44;1758972;81;21014;-73
2021/06/10 07:45:55;;;;;;;4.22;1.90;;;;;;;22.48;48.38;100948.80;1739779;81;21295;-75
2021/06/10 07:48:22;;;;;;;4.87;2.05;;;;;;;22.55;48.75;100950.27;1735835;82;21028;-75
2021/06/10 07:50:51;;;;;;;3.37;2.37;;;;;;;22.59;49.22;100948.41;1736664;82;21010;-75
2021/06/10 07:53:18;;;;;;;3.17;1.50;;;;;;;22.65;49.72;100944.28;1747491;81;21089;-76
2021/06/10 07:55:46;;;;;;;4.50;1.70;;;;;;;22.73;48.81;100947.39;1766812;79;20995;-70
2021/06/10 07:58:14;;;;;;;3.22;2.00;;;;;;;22.77;48.57;100944.73;1762920;81;22000;-79
2021/06/10 08:00:42;;;;;;;5.47;2.22;;;;;;;22.82;48.92;100947.67;1763246;81;21580;-80
2021/06/10 08:03:09;;;;;;;4.90;2.98;;;;;;;22.86;49.77;100949.81;1763528;81;20983;-74
2021/06/10 08:05:39;;;;;;;3.22;2.10;;;;;;;22.93;48.62;100945.48;1763320;81;21032;-71
2021/06/10 08:08:06;;;;;;;4.17;2.20;;;;;;;22.94;49.20;100939.70;1761794;81;21109;-75
2021/06/10 08:10:35;;;;;;;5.50;3.20;;;;;;;22.97;49.02;100945.47;1762870;81;21108;-76
2021/06/10 08:13:02;;;;;;;5.67;2.10;;;;;;;23.05;48.25;100951.19;1761935;81;21041;-73
2021/06/10 08:15:31;;;;;;;2.50;1.72;;;;;;;23.03;48.13;100943.45;1762527;81;21014;-76
2021/06/10 08:18:00;;;;;;;2.47;1.42;;;;;;;23.02;46.97;100951.05;1763605;81;21006;-69
2021/06/10 08:20:34;;;;;;;4.28;1.70;;;;;;;22.99;48.37;100954.05;1763622;81;21017;-71
2021/06/10 08:23:00;;;;;;;2.22;1.60;;;;;;;23.05;47.70;100955.16;1762851;81;21133;-74
2021/06/10 08:25:30;;;;;;;5.90;1.95;;;;;;;23.05;47.41;100952.02;1763320;81;21264;-77
2021/06/10 08:28:04;;;;;;;3.87;1.80;;;;;;;23.10;46.76;100960.78;1763811;81;21019;-73
2021/06/10 08:30:34;;;;;;;3.00;2.00;;;;;;;23.13;47.33;100953.81;1763817;81;20991;-82
2021/06/10 08:33:43;;;;;;;3.22;2.15;;;;;;;23.21;48.47;100957.71;1763597;81;21018;-79
2021/06/10 08:36:18;;;;;;;4.30;2.08;;;;;;;23.28;47.75;100950.72;1716844;81;20935;-75
2021/06/10 08:38:57;;;;;;;5.20;1.82;;;;;;;23.40;48.27;100966.55;1763327;81;20891;-73
2021/06/10 08:41:45;;;;;;;5.08;1.67;;;;;;;23.51;48.49;100966.64;1763752;81;21645;-71
2021/06/10 08:44:26;;;;;;;5.17;2.45;;;;;;;23.58;47.65;100967.06;1764031;81;21010;-73
2021/06/10 08:47:21;;;;;;;2.08;1.85;;;;;;;23.65;48.37;100960.55;1763801;81;20923;-74
2021/06/10 08:50:18;;;;;;;5.67;1.90;;;;;;;23.71;47.98;100958.50;1763808;81;21142;-71
2021/06/10 08:53:01;;;;;;;;;;;;;;;23.71;46.99;100964.63;1766538;81;21434;-82
2021/06/10 08:55:41;;;;;;;6.60;1.70;;;;;;;23.75;48.16;100969.58;1763793;81;20137;-73
2021/06/10 08:58:33;;;;;;;6.17;1.80;;;;;;;23.76;46.76;100960.13;1763582;81;21006;-78
2021/06/10 09:01:28;;;;;;;3.83;1.62;;;;;;;23.78;46.37;100962.09;1764031;81;20986;-72
2021/06/10 09:04:10;;;;;;;5.25;2.45;;;;;;;23.78;45.39;100965.24;1763929;81;21065;-77
2021/06/10 09:07:01;;;;;;;4.27;1.70;;;;;;;23.74;47.77;100965.30;1764030;81;20950;-78
2021/06/10 09:09:45;;;;;;;2.60;1.60;;;;;;;23.86;45.51;100963.86;1764070;81;21001;-73
2021/06/10 09:12:25;;;;;;;3.77;1.72;;;;;;;23.90;45.60;100968.60;1763945;81;20994;-75
2021/06/10 09:15:10;;;;;;;4.00;1.85;;;;;;;23.98;45.88;100971.19;1764126;81;20998;-77
2021/06/10 09:20:34;;;;;;;3.77;2.00;;;;;;;24.09;44.22;100969.94;1763942;80;21564;-79
2021/06/10 09:23:27;;;;;;;3.37;1.80;;;;;;;24.16;43.92;100967.72;1764058;81;21525;-71
2021/06/10 09:26:06;;;;;;;5.90;1.50;;;;;;;24.23;44.69;100967.81;1763749;81;20887;-76
2021/06/10 09:31:41;;;;;;;11.05;1.70;;;;;;;24.41;41.62;100968.80;1764302;81;21863;-81
2021/06/10 09:34:17;;;;;;;4.90;2.12;;;;;;;24.40;41.61;100965.31;1763648;81;20875;-74
2021/06/10 09:37:11;;;;;;;3.98;1.40;;;;;;;24.49;41.64;100962.05;1763231;81;32636;-74
2021/06/10 09:39:53;;;;;;;2.00;1.50;;;;;;;24.60;39.78;100965.05;1763803;81;20987;-74
2021/06/10 09:42:47;;;;;;;3.05;1.60;;;;;;;24.61;40.06;100955.27;1763633;81;20979;-70
2021/06/10 09:45:28;;;;;;;5.72;2.42;;;;;;;24.65;41.12;100960.53;1763726;81;21967;-76
2021/06/10 09:48:05;;;;;;;4.60;1.70;;;;;;;24.73;42.56;100967.88;1763834;81;20871;-72
2021/06/10 09:50:53;;;;;;;6.40;2.30;;;;;;;24.83;41.59;100964.13;1764007;81;20986;-72
2021/06/10 09:53:25;;;;;;;1.60;1.50;;;;;;;24.88;42.25;100961.26;1763985;81;21029;-74
2021/06/10 09:56:07;;;;;;;4.25;1.95;;;;;;;24.93;41.22;100952.22;1762468;81;21648;-72
2021/06/10 09:58:53;;;;;;;5.72;1.80;;;;;;;24.87;41.83;100954.80;1763726;81;21782;-71
2021/06/10 10:01:44;;;;;;;3.60;1.92;;;;;;;25.17;42.16;100949.73;1763639;81;21005;-74
2021/06/10 10:07:27;;;;;;;2.70;1.90;;;;;;;25.71;40.74;100957.52;1762246;81;20995;-78
2021/06/10 10:10:09;;;;;;;5.87;1.60;;;;;;;25.71;40.15;100952.20;1764057;81;21078;-72
2021/06/10 10:12:45;;;;;;;2.40;1.77;;;;;;;25.74;40.12;100941.19;1764217;81;21111;-77
2021/06/10 10:15:43;;;;;;;3.08;2.08;;;;;;;25.85;41.68;100945.13;1763567;80;21450;-77
2021/06/10 10:18:38;;;;;;;4.20;1.70;;;;;;;25.93;41.00;100933.53;1763678;81;20959;-77
2021/06/10 10:21:36;;;;;;;2.83;1.80;;;;;;;25.96;40.82;100933.97;1763633;81;21015;-71
2021/06/10 10:24:30;;;;;;;8.63;2.12;;;;;;;26.03;40.69;100933.52;1764004;81;21529;-76
2021/06/10 10:27:25;;;;;;;5.12;2.02;;;;;;;26.17;42.40;100931.77;1764301;81;21149;-80
2021/06/10 10:30:24;;;;;;;2.67;2.10;;;;;;;26.33;41.08;100922.64;1764872;81;20936;-76
2021/06/10 10:33:27;;;;;;;3.62;2.22;;;;;;;26.29;41.79;100922.23;1763571;81;21026;-75
2021/06/10 10:36:40;;;;;;;2.40;2.20;;;;;;;26.26;41.24;100924.76;1763458;81;21457;-74
2021/06/10 10:39:41;;;;;;;;;;;;;;;26.18;41.84;100924.93;1766346;79;20954;-76
2021/06/10 10:42:35;;;;;;;3.15;1.90;;;;;;;26.19;42.31;100918.61;1763427;81;21127;-75
2021/06/10 10:45:32;;;;;;;5.35;2.27;;;;;;;26.35;42.14;100919.28;1762710;81;21105;-76
2021/06/10 10:48:08;;;;;;;2.92;2.12;;;;;;;26.39;40.87;100921.34;1762386;81;21837;-72
2021/06/10 10:50:57;;;;;;;2.65;2.00;;;;;;;26.41;39.93;100917.16;1761807;81;21074;-76
2021/06/10 10:53:46;;;;;;;4.92;2.75;;;;;;;26.46;42.38;100911.55;1761997;80;21097;-74
2021/06/10 10:56:40;;;;;;;5.25;2.12;;;;;;;26.58;38.31;100918.48;1728732;82;21770;-83
2021/06/10 10:59:25;;;;;;;6.15;2.45;;;;;;;26.49;38.48;100908.48;1765505;81;21055;-72
2021/06/10 11:02:26;;;;;;;2.30;2.10;;;;;;;26.52;38.56;100902.77;1764543;81;21117;-77
2021/06/10 11:05:10;;;;;;;3.30;2.00;;;;;;;26.61;38.62;100904.77;1764468;81;21049;-74
2021/06/10 11:07:51;;;;;;;3.87;2.60;;;;;;;26.60;39.08;100900.45;1765767;81;20977;-76
2021/06/10 11:10:52;;;;;;;3.87;2.20;;;;;;;26.32;40.48;100897.06;1765584;81;21103;-77
2021/06/10 11:13:46;;;;;;;6.15;2.25;;;;;;;26.11;38.89;100900.09;1765532;81;21022;-76
2021/06/10 11:16:29;;;;;;;3.47;2.22;;;;;;;26.01;37.92;100895.63;1765981;81;20935;-80
2021/06/10 11:19:15;;;;;;;3.10;2.30;;;;;;;26.18;38.29;100889.52;1765055;81;21497;-76
2021/06/10 11:21:56;;;;;;;6.33;2.25;;;;;;;26.58;39.29;100887.86;1765151;81;21121;-72
2021/06/10 11:24:42;;;;;;;7.12;2.10;;;;;;;26.62;40.32;100891.75;1765548;81;22011;-79
2021/06/10 11:27:25;;;;;;;7.55;6.10;;;;;;;26.53;39.04;100891.11;1765914;81;21111;-76
2021/06/10 11:30:21;;;;;;;8.75;2.87;;;;;;;26.76;39.45;100888.11;1720045;81;21065;-80
2021/06/10 11:33:16;;;;;;;3.45;2.47;;;;;;;26.83;38.88;100875.67;1762689;81;20922;-75
2021/06/10 11:36:05;;;;;;;5.03;2.15;;;;;;;26.79;38.89;100874.40;1766686;81;21037;-84
2021/06/10 11:38:56;;;;;;;4.83;2.30;;;;;;;26.65;39.81;100872.20;1766551;81;21799;-77
2021/06/10 11:44:25;;;;;;;4.85;2.40;;;;;;;27.01;41.25;100868.42;1767675;81;21109;-78
2021/06/10 11:47:00;;;;;;;3.12;2.67;;;;;;;27.08;41.19;100871.41;1767915;81;20939;-85
2021/06/10 11:49:34;;;;;;;4.30;2.55;;;;;;;26.88;40.98;100871.06;1768418;79;21050;-76
2021/06/10 11:52:20;;;;;;;4.70;2.90;;;;;;;26.65;41.17;100872.71;1768184;81;21422;-74
2021/06/10 11:55:09;;;;;;;7.87;2.77;;;;;;;26.67;41.48;100871.52;1766897;81;21068;-76
2021/06/10 11:58:01;;;;;;;10.10;2.60;;;;;;;26.64;41.81;100863.10;1766496;81;21225;-84
2021/06/10 12:00:55;;;;;;;4.42;2.70;;;;;;;26.52;41.15;100858.85;1765515;81;21611;-75
2021/06/10 12:03:49;;;;;;;5.28;3.65;;;;;;;26.39;42.66;100866.78;1765841;81;21038;-75
2021/06/10 12:06:45;;;;;;;6.92;2.60;;;;;;;26.29;43.04;100857.84;1765835;79;21514;-77